createdAt,value
2023-01-17T00:02:26.988Z,99.90
2023-01-17T00:05:14.619Z,99.90
2023-01-17T00:08:00.163Z,99.90
2023-01-17T00:10:29.221Z,99.90
2023-01-17T00:13:03.986Z,99.90
2023-01-17T00:15:31.731Z,99.90
2023-01-17T00:17:59.019Z,99.90
2023-01-17T00:20:47.402Z,99.90
2023-01-17T00:23:41.478Z,99.90
2023-01-17T00:26:15.034Z,99.90
2023-01-17T00:28:43.372Z,99.90
2023-01-17T00:31:12.003Z,99.90
2023-01-17T00:33:38.913Z,99.90
2023-01-17T00:36:08.749Z,99.90
2023-01-17T00:38:38.051Z,99.90
2023-01-17T00:41:06.303Z,99.90
2023-01-17T00:43:51.773Z,99.90
2023-01-17T00:46:37.759Z,99.90
2023-01-17T00:49:23.630Z,99.90
2023-01-17T00:52:10.058Z,99.90
2023-01-17T00:54:55.607Z,99.90
2023-01-17T00:57:41.170Z,99.90
2023-01-17T01:00:26.997Z,99.90
2023-01-17T01:03:12.559Z,99.90
2023-01-17T01:05:59.924Z,99.90
2023-01-17T01:08:48.239Z,99.90
2023-01-17T01:11:36.711Z,99.90
2023-01-17T01:14:26.016Z,99.90
2023-01-17T01:17:11.399Z,99.90
2023-01-17T01:19:57.047Z,99.90
2023-01-17T01:22:42.578Z,99.90
2023-01-17T01:25:28.029Z,99.90
2023-01-17T01:28:22.118Z,99.90
2023-01-17T01:31:07.767Z,99.90
2023-01-17T01:33:34.417Z,99.90
2023-01-17T01:36:01.071Z,99.90
2023-01-17T01:38:28.212Z,99.90
2023-01-17T01:40:56.585Z,99.90
2023-01-17T01:43:45.571Z,99.90
2023-01-17T01:46:25.628Z,99.90
2023-01-17T01:49:03.207Z,99.90
2023-01-17T01:51:48.834Z,99.90
2023-01-17T01:54:20.688Z,99.90
2023-01-17T01:56:49.844Z,99.90
2023-01-17T01:59:21.904Z,99.90
2023-01-17T02:01:51.532Z,99.90
2023-01-17T02:04:21.643Z,99.90
2023-01-17T02:06:51.680Z,99.90
2023-01-17T02:09:18.913Z,99.90
2023-01-17T02:11:48.678Z,99.90
2023-01-17T02:14:20.692Z,99.90
2023-01-17T02:17:15.532Z,99.90
2023-01-17T02:20:20.327Z,99.90
2023-01-17T02:22:52.909Z,99.90
2023-01-17T02:25:47.611Z,99.90
2023-01-17T02:28:46.879Z,99.90
2023-01-17T02:31:29.364Z,99.90
2023-01-17T02:33:59.325Z,99.90
2023-01-17T02:36:36.699Z,99.90
2023-01-17T02:39:24.838Z,99.90
2023-01-17T02:42:01.575Z,99.90
2023-01-17T02:44:28.304Z,99.90
2023-01-17T02:46:57.121Z,99.90
2023-01-17T02:49:30.383Z,99.90
2023-01-17T02:52:37.377Z,99.90
2023-01-17T02:55:28.234Z,99.90
2023-01-17T02:58:27.326Z,99.90
2023-01-17T03:01:03.228Z,99.90
2023-01-17T03:04:08.261Z,99.90
2023-01-17T03:06:43.703Z,99.90
2023-01-17T03:09:14.342Z,99.90
2023-01-17T03:11:41.907Z,99.90
2023-01-17T03:14:08.502Z,99.90
2023-01-17T03:16:35.965Z,99.90
2023-01-17T03:19:02.786Z,99.90
2023-01-17T03:21:29.576Z,99.90
2023-01-17T03:23:56.264Z,99.90
2023-01-17T03:26:22.960Z,99.90
2023-01-17T03:28:51.749Z,99.90
2023-01-17T03:31:20.026Z,99.90
2023-01-17T03:33:46.988Z,99.90
2023-01-17T03:36:16.073Z,99.90
2023-01-17T03:38:47.396Z,99.90
2023-01-17T03:41:14.109Z,99.90
2023-01-17T03:43:40.779Z,99.90
2023-01-17T03:46:20.867Z,99.90
2023-01-17T03:48:52.763Z,99.90
2023-01-17T03:51:19.665Z,99.90
2023-01-17T03:53:46.905Z,99.90
2023-01-17T03:56:16.431Z,99.90
2023-01-17T03:58:43.532Z,99.90
2023-01-17T04:01:13.358Z,99.90
2023-01-17T04:03:40.569Z,99.90
2023-01-17T04:06:07.363Z,99.90
2023-01-17T04:08:36.299Z,99.90
2023-01-17T04:11:02.983Z,99.90
2023-01-17T04:13:29.596Z,99.90
2023-01-17T04:15:56.430Z,99.90
2023-01-17T04:18:24.447Z,99.90
2023-01-17T04:20:51.555Z,99.90
2023-01-17T04:23:18.364Z,99.90
2023-01-17T04:25:45.178Z,99.90
2023-01-17T04:28:12.078Z,99.90
2023-01-17T04:30:38.853Z,99.90
2023-01-17T04:33:08.250Z,99.90
2023-01-17T04:35:34.933Z,99.90
2023-01-17T04:38:01.751Z,99.90
2023-01-17T04:40:30.832Z,99.90
2023-01-17T04:42:58.168Z,99.90
2023-01-17T04:45:25.005Z,99.90
2023-01-17T04:47:51.715Z,99.90
2023-01-17T04:50:18.626Z,99.90
2023-01-17T04:52:45.284Z,99.90
2023-01-17T04:55:15.462Z,99.90
2023-01-17T04:57:42.122Z,99.90
2023-01-17T05:00:09.271Z,99.90
2023-01-17T05:02:35.975Z,99.90
2023-01-17T05:05:05.639Z,99.90
2023-01-17T05:07:33.537Z,99.90
2023-01-17T05:10:04.623Z,99.90
2023-01-17T05:12:31.425Z,99.90
2023-01-17T05:14:58.189Z,99.90
2023-01-17T05:17:24.987Z,99.90
2023-01-17T05:19:52.304Z,99.90
2023-01-17T05:22:19.023Z,99.90
2023-01-17T05:24:47.449Z,99.90
2023-01-17T05:27:14.614Z,99.90
2023-01-17T05:29:43.690Z,99.90
2023-01-17T05:32:12.562Z,99.90
2023-01-17T05:34:41.410Z,99.90
2023-01-17T05:37:08.088Z,99.90
2023-01-17T05:39:34.752Z,99.90
2023-01-17T05:42:01.554Z,99.90
2023-01-17T05:44:30.534Z,99.90
2023-01-17T05:46:59.820Z,99.90
2023-01-17T05:49:28.640Z,99.90
2023-01-17T05:51:57.970Z,99.90
2023-01-17T05:54:24.655Z,99.90
2023-01-17T05:56:51.268Z,99.90
2023-01-17T05:59:25.602Z,99.90
2023-01-17T06:02:02.813Z,99.90
2023-01-17T06:04:31.986Z,99.90
2023-01-17T06:06:58.655Z,99.90
2023-01-17T06:09:25.415Z,99.90
2023-01-17T06:11:52.145Z,99.90
2023-01-17T06:14:18.828Z,99.90
2023-01-17T06:16:47.717Z,99.90
2023-01-17T06:19:14.391Z,99.90
2023-01-17T06:21:41.049Z,99.90
2023-01-17T06:24:07.807Z,99.90
2023-01-17T06:26:34.510Z,99.90
2023-01-17T06:29:01.664Z,99.90
2023-01-17T06:31:28.462Z,99.90
2023-01-17T06:33:58.115Z,99.90
2023-01-17T06:36:27.208Z,99.90
2023-01-17T06:38:53.880Z,99.90
2023-01-17T06:41:23.223Z,99.90
2023-01-17T06:43:49.858Z,99.90
2023-01-17T06:46:16.485Z,99.90
2023-01-17T06:48:46.059Z,99.90
2023-01-17T06:51:12.782Z,99.90
2023-01-17T06:53:40.183Z,99.90
2023-01-17T06:56:07.483Z,99.90
2023-01-17T06:58:34.392Z,99.90
2023-01-17T07:01:12.308Z,99.90
2023-01-17T07:03:44.052Z,99.90
2023-01-17T07:06:10.862Z,99.90
2023-01-17T07:08:37.723Z,99.90
2023-01-17T07:11:07.787Z,99.90
2023-01-17T07:13:36.627Z,99.90
2023-01-17T07:16:06.814Z,99.90
2023-01-17T07:18:37.132Z,99.90
2023-01-17T07:21:03.947Z,99.90
2023-01-17T07:23:33.004Z,99.90
2023-01-17T07:26:02.595Z,99.90
2023-01-17T07:28:29.480Z,99.90
2023-01-17T07:30:58.667Z,99.90
2023-01-17T07:33:25.416Z,99.90
2023-01-17T07:35:52.055Z,99.90
2023-01-17T07:38:19.947Z,99.90
2023-01-17T07:40:46.936Z,99.90
2023-01-17T07:43:18.752Z,99.90
2023-01-17T07:45:50.720Z,99.90
2023-01-17T07:48:19.845Z,99.90
2023-01-17T07:51:00.958Z,99.90
2023-01-17T07:53:33.630Z,99.90
2023-01-17T07:56:04.602Z,99.90
2023-01-17T07:58:32.299Z,99.90
2023-01-17T08:01:12.459Z,99.90
2023-01-17T08:03:40.174Z,99.90
2023-01-17T08:06:24.594Z,99.90
2023-01-17T08:08:54.999Z,99.90
2023-01-17T08:11:22.290Z,99.90
2023-01-17T08:13:57.287Z,99.90
2023-01-17T08:16:27.003Z,99.90
2023-01-17T08:18:54.869Z,99.90
2023-01-17T08:21:23.874Z,99.90
2023-01-17T08:23:54.383Z,99.90
2023-01-17T08:26:23.144Z,99.90
2023-01-17T08:28:56.575Z,99.90
2023-01-17T08:31:24.509Z,99.90
2023-01-17T08:33:51.235Z,99.90
2023-01-17T08:36:20.653Z,99.90
2023-01-17T08:38:47.516Z,99.90
2023-01-17T08:41:14.192Z,99.90
2023-01-17T08:43:40.877Z,99.90
2023-01-17T08:46:07.596Z,99.90
2023-01-17T08:48:34.361Z,99.90
2023-01-17T08:51:02.698Z,99.90
2023-01-17T08:53:29.385Z,99.90
2023-01-17T08:56:00.739Z,99.90
2023-01-17T08:58:35.792Z,99.90
2023-01-17T09:01:03.688Z,99.90
2023-01-17T09:03:31.510Z,99.90
2023-01-17T09:06:02.571Z,99.90
2023-01-17T09:08:29.369Z,99.90
2023-01-17T09:10:56.304Z,99.90
2023-01-17T09:13:23.399Z,99.90
2023-01-17T09:15:50.391Z,99.90
2023-01-17T09:18:17.237Z,99.90
2023-01-17T09:20:44.214Z,99.90
2023-01-17T09:23:10.887Z,99.90
2023-01-17T09:25:39.775Z,99.90
2023-01-17T09:28:06.546Z,99.90
2023-01-17T09:30:35.477Z,99.90
2023-01-17T09:33:02.134Z,99.90
2023-01-17T09:35:28.786Z,99.90
2023-01-17T09:37:57.260Z,99.90
2023-01-17T09:40:25.239Z,99.90
2023-01-17T09:42:58.030Z,99.90
2023-01-17T09:45:27.693Z,99.90
2023-01-17T09:47:55.176Z,99.90
2023-01-17T09:50:31.686Z,99.90
2023-01-17T09:53:04.787Z,99.90
2023-01-17T09:55:53.021Z,99.90
2023-01-17T09:58:23.632Z,99.90
2023-01-17T10:01:24.364Z,99.90
2023-01-17T10:04:02.819Z,99.90
2023-01-17T10:06:47.754Z,99.90
2023-01-17T10:09:34.777Z,99.90
2023-01-17T10:12:48.526Z,99.90
2023-01-17T10:15:44.738Z,99.90
2023-01-17T10:18:31.966Z,99.90
2023-01-17T10:21:32.913Z,99.90
2023-01-17T10:24:16.367Z,99.90
2023-01-17T10:26:52.633Z,99.90
2023-01-17T10:29:21.287Z,99.90
2023-01-17T10:31:59.682Z,99.90
2023-01-17T10:34:29.314Z,99.90
2023-01-17T10:37:06.377Z,99.90
2023-01-17T10:39:33.750Z,99.90
2023-01-17T10:42:13.327Z,99.90
2023-01-17T10:44:48.733Z,99.90
2023-01-17T10:47:20.896Z,99.90
2023-01-17T10:49:58.357Z,99.90
2023-01-17T10:52:57.775Z,99.90
2023-01-17T10:55:33.771Z,99.90
2023-01-17T10:58:01.381Z,99.00
2023-01-17T11:01:06.667Z,95.60
2023-01-17T11:03:34.697Z,91.50
2023-01-17T11:06:22.808Z,90.70
2023-01-17T11:08:51.156Z,90.30
2023-01-17T11:11:19.781Z,90.40
2023-01-17T11:13:48.755Z,90.70
2023-01-17T11:16:21.724Z,91.50
2023-01-17T11:19:06.203Z,91.80
2023-01-17T11:21:33.557Z,92.80
2023-01-17T11:24:13.215Z,93.50
2023-01-17T11:26:47.450Z,93.70
2023-01-17T11:29:28.358Z,94.60
2023-01-17T11:32:16.751Z,94.70
2023-01-17T11:34:43.363Z,95.60
2023-01-17T11:37:19.181Z,94.90
2023-01-17T11:39:48.123Z,94.70
2023-01-17T11:42:36.540Z,94.00
2023-01-17T11:45:26.669Z,93.90
2023-01-17T11:48:23.670Z,94.10
2023-01-17T11:50:57.766Z,95.10
2023-01-17T11:53:33.319Z,94.40
2023-01-17T11:56:11.421Z,95.10
2023-01-17T11:58:42.350Z,95.90
2023-01-17T12:01:26.265Z,96.80
2023-01-17T12:04:13.453Z,97.50
2023-01-17T12:06:58.135Z,98.10
2023-01-17T12:09:44.993Z,99.40
2023-01-17T12:12:37.247Z,99.90
2023-01-17T12:15:30.151Z,99.90
2023-01-17T12:18:30.158Z,99.90
2023-01-17T12:21:17.749Z,99.90
2023-01-17T12:24:09.103Z,98.00
2023-01-17T12:26:56.864Z,94.80
2023-01-17T12:29:42.089Z,93.80
2023-01-17T12:32:18.031Z,90.60
2023-01-17T12:34:54.683Z,88.60
2023-01-17T12:37:34.346Z,87.30
2023-01-17T12:40:09.910Z,87.70
2023-01-17T12:42:43.935Z,83.80
2023-01-17T12:45:36.041Z,81.00
2023-01-17T12:48:11.581Z,75.70
2023-01-17T12:50:43.209Z,75.40
2023-01-17T12:53:28.181Z,73.70
2023-01-17T12:56:09.112Z,75.40
2023-01-17T12:58:46.567Z,74.50
2023-01-17T13:01:31.222Z,70.30
2023-01-17T13:04:19.252Z,68.60
2023-01-17T13:06:51.846Z,68.90
2023-01-17T13:09:22.838Z,72.40
2023-01-17T13:12:01.792Z,75.10
2023-01-17T13:14:28.774Z,78.40
2023-01-17T13:17:17.444Z,79.70
2023-01-17T13:19:47.949Z,81.40
2023-01-17T13:22:17.892Z,83.80
2023-01-17T13:25:00.272Z,85.60
2023-01-17T13:27:32.501Z,88.10
2023-01-17T13:30:18.109Z,89.30
2023-01-17T13:33:25.123Z,90.90
2023-01-17T13:35:55.097Z,91.30
2023-01-17T13:38:45.046Z,92.20
2023-01-17T13:41:44.201Z,93.00
2023-01-17T13:44:21.517Z,93.40
2023-01-17T13:47:05.042Z,94.10
2023-01-17T13:49:51.498Z,94.60
2023-01-17T13:52:20.881Z,95.30
2023-01-17T13:54:56.492Z,95.70
2023-01-17T13:57:40.159Z,96.90
2023-01-17T14:00:16.368Z,97.30
2023-01-17T14:02:46.580Z,97.90
2023-01-17T14:05:21.131Z,97.80
2023-01-17T14:08:19.099Z,98.00
2023-01-17T14:10:54.874Z,98.30
2023-01-17T14:13:38.634Z,98.60
2023-01-17T14:16:28.214Z,98.60
2023-01-17T14:18:55.678Z,99.70
2023-01-17T14:21:28.414Z,99.90
2023-01-17T14:24:06.296Z,99.90
2023-01-17T14:27:14.003Z,99.90
2023-01-17T14:29:59.507Z,99.90
2023-01-17T14:32:36.794Z,99.90
2023-01-17T14:35:04.920Z,99.90
2023-01-17T14:37:51.981Z,99.90
2023-01-17T14:40:26.576Z,99.90
2023-01-17T14:43:15.013Z,99.90
2023-01-17T14:45:43.341Z,99.90
2023-01-17T14:48:29.571Z,99.90
2023-01-17T14:50:59.944Z,99.90
2023-01-17T14:53:31.506Z,99.90
2023-01-17T14:56:13.671Z,99.90
2023-01-17T14:58:41.422Z,99.90
2023-01-17T15:01:20.956Z,99.90
2023-01-17T15:03:56.947Z,99.90
2023-01-17T15:06:45.733Z,99.90
2023-01-17T15:09:23.694Z,99.90
2023-01-17T15:11:52.476Z,99.90
2023-01-17T15:14:34.455Z,99.90
2023-01-17T15:17:13.894Z,99.90
2023-01-17T15:19:45.544Z,99.90
2023-01-17T15:22:12.666Z,99.90
2023-01-17T15:24:46.503Z,99.90
2023-01-17T15:27:16.973Z,99.90
2023-01-17T15:29:45.451Z,99.90
2023-01-17T15:32:22.314Z,99.90
2023-01-17T15:34:50.519Z,99.90
2023-01-17T15:37:37.405Z,99.90
2023-01-17T15:40:23.616Z,99.90
2023-01-17T15:43:00.881Z,99.90
2023-01-17T15:45:32.490Z,99.90
2023-01-17T15:48:47.508Z,99.90
2023-01-17T15:51:14.304Z,99.90
2023-01-17T15:53:42.918Z,99.90
2023-01-17T15:56:39.026Z,99.90
2023-01-17T15:59:50.710Z,99.90
2023-01-17T16:02:35.700Z,99.90
2023-01-17T16:05:25.148Z,99.90
2023-01-17T16:07:52.919Z,99.90
2023-01-17T16:10:24.863Z,99.90
2023-01-17T16:12:53.699Z,99.90
2023-01-17T16:15:22.105Z,99.90
2023-01-17T16:17:56.156Z,99.90
2023-01-17T16:20:29.562Z,99.90
2023-01-17T16:22:56.491Z,99.90
2023-01-17T16:25:25.426Z,99.90
2023-01-17T16:27:52.908Z,99.90
2023-01-17T16:30:21.693Z,99.90
2023-01-17T16:32:49.069Z,99.90
2023-01-17T16:35:24.004Z,99.90
2023-01-17T16:38:04.641Z,99.90
2023-01-17T16:40:38.985Z,99.90
2023-01-17T16:43:05.676Z,99.90
2023-01-17T16:45:40.416Z,99.90
2023-01-17T16:48:08.031Z,99.90
2023-01-17T16:50:34.988Z,99.90
2023-01-17T16:53:01.648Z,99.90
2023-01-17T16:55:30.889Z,99.90
2023-01-17T16:58:00.225Z,99.90
2023-01-17T17:00:26.870Z,99.90
2023-01-17T17:02:54.089Z,99.90
2023-01-17T17:05:21.074Z,99.90
2023-01-17T17:07:52.501Z,99.90
2023-01-17T17:10:21.921Z,99.90
2023-01-17T17:12:48.600Z,99.90
2023-01-17T17:15:17.439Z,99.90
2023-01-17T17:17:44.187Z,99.90
2023-01-17T17:20:13.891Z,99.90
2023-01-17T17:22:44.813Z,99.90
2023-01-17T17:25:15.878Z,99.90
2023-01-17T17:27:45.276Z,99.90
2023-01-17T17:30:12.630Z,99.90
2023-01-17T17:32:39.310Z,99.90
2023-01-17T17:35:06.304Z,99.90
2023-01-17T17:37:33.636Z,99.90
2023-01-17T17:40:00.545Z,99.90
2023-01-17T17:42:27.384Z,99.90
2023-01-17T17:44:54.188Z,99.90
2023-01-17T17:47:23.920Z,99.90
2023-01-17T17:49:53.121Z,99.90
2023-01-17T17:52:22.051Z,99.90
2023-01-17T17:54:49.166Z,99.90
2023-01-17T17:57:15.970Z,99.90
2023-01-17T17:59:42.658Z,99.90
2023-01-17T18:02:12.787Z,99.90
2023-01-17T18:04:39.750Z,99.90
2023-01-17T18:07:06.465Z,99.90
2023-01-17T18:09:33.285Z,99.90
2023-01-17T18:12:03.311Z,99.90
2023-01-17T18:14:30.177Z,99.90
2023-01-17T18:16:57.366Z,99.90
2023-01-17T18:19:25.647Z,99.90
2023-01-17T18:21:53.652Z,99.90
2023-01-17T18:24:22.995Z,99.90
2023-01-17T18:26:57.670Z,99.90
2023-01-17T18:29:25.153Z,99.90
2023-01-17T18:31:53.069Z,99.90
2023-01-17T18:34:23.850Z,99.90
2023-01-17T18:36:51.917Z,99.90
2023-01-17T18:39:27.638Z,99.90
2023-01-17T18:41:54.656Z,99.90
2023-01-17T18:44:22.967Z,99.90
2023-01-17T18:46:50.668Z,99.90
2023-01-17T18:49:19.457Z,99.90
2023-01-17T18:51:50.324Z,99.90
2023-01-17T18:54:18.204Z,99.90
2023-01-17T18:56:45.052Z,99.90
2023-01-17T18:59:18.527Z,99.90
2023-01-17T19:01:45.716Z,99.90
2023-01-17T19:04:14.473Z,99.90
2023-01-17T19:06:44.114Z,99.90
2023-01-17T19:09:12.751Z,99.90
2023-01-17T19:11:39.775Z,99.90
2023-01-17T19:14:06.918Z,99.90
2023-01-17T19:16:39.009Z,99.90
2023-01-17T19:19:08.767Z,99.90
2023-01-17T19:21:38.392Z,99.90
2023-01-17T19:24:06.129Z,99.90
2023-01-17T19:26:33.301Z,99.90
2023-01-17T19:29:00.580Z,99.90
2023-01-17T19:31:29.189Z,99.90
2023-01-17T19:33:58.064Z,99.90
2023-01-17T19:36:27.658Z,99.90
2023-01-17T19:39:04.434Z,99.90
2023-01-17T19:41:35.061Z,99.90
2023-01-17T19:44:08.154Z,99.90
2023-01-17T19:46:38.282Z,99.90
2023-01-17T19:49:07.116Z,99.90
2023-01-17T19:51:34.357Z,99.90
2023-01-17T19:54:01.925Z,99.90
2023-01-17T19:56:30.100Z,99.90
2023-01-17T19:59:01.028Z,99.90
2023-01-17T20:01:30.479Z,99.90
2023-01-17T20:03:58.572Z,99.90
2023-01-17T20:06:30.267Z,99.90
2023-01-17T20:08:57.563Z,99.90
2023-01-17T20:11:25.538Z,99.90
2023-01-17T20:13:54.515Z,99.90
2023-01-17T20:16:25.092Z,99.90
2023-01-17T20:18:52.567Z,99.90
2023-01-17T20:21:21.602Z,99.90
2023-01-17T20:23:50.169Z,99.90
2023-01-17T20:26:37.276Z,99.90
2023-01-17T20:29:14.219Z,99.90
2023-01-17T20:31:42.798Z,99.90
2023-01-17T20:34:12.063Z,99.90
2023-01-17T20:36:40.315Z,99.90
2023-01-17T20:39:08.519Z,99.90
2023-01-17T20:41:40.283Z,99.90
2023-01-17T20:44:12.146Z,99.90
2023-01-17T20:46:41.121Z,99.90
2023-01-17T20:49:15.208Z,99.90
2023-01-17T20:51:45.662Z,99.90
2023-01-17T20:54:17.708Z,99.90
2023-01-17T20:56:47.870Z,99.90
2023-01-17T20:59:17.639Z,99.90
2023-01-17T21:01:45.072Z,99.90
2023-01-17T21:04:12.898Z,99.90
2023-01-17T21:06:40.987Z,99.90
2023-01-17T21:09:10.822Z,99.90
2023-01-17T21:11:37.664Z,99.90
2023-01-17T21:14:05.787Z,99.90
2023-01-17T21:16:34.181Z,99.90
2023-01-17T21:19:01.346Z,99.90
2023-01-17T21:21:29.231Z,99.90
2023-01-17T21:23:57.829Z,99.90
2023-01-17T21:26:26.093Z,99.90
2023-01-17T21:28:53.877Z,99.90
2023-01-17T21:31:26.232Z,99.90
2023-01-17T21:34:05.063Z,99.90
2023-01-17T21:36:38.150Z,99.90
2023-01-17T21:39:10.148Z,99.90
2023-01-17T21:41:41.641Z,99.90
2023-01-17T21:44:13.173Z,99.90
2023-01-17T21:46:40.959Z,99.90
2023-01-17T21:49:11.844Z,99.90
2023-01-17T21:51:54.289Z,99.90
2023-01-17T21:54:45.872Z,99.90
2023-01-17T21:57:32.964Z,99.90
2023-01-17T21:59:59.699Z,99.90
2023-01-17T22:02:26.488Z,99.90
2023-01-17T22:04:54.615Z,99.90
2023-01-17T22:07:21.431Z,99.90
2023-01-17T22:09:48.152Z,99.90
2023-01-17T22:12:14.881Z,99.90
2023-01-17T22:14:44.241Z,99.90
2023-01-17T22:17:10.911Z,99.90
2023-01-17T22:19:37.525Z,99.90
2023-01-17T22:22:04.209Z,99.90
2023-01-17T22:24:30.859Z,99.90
2023-01-17T22:26:57.617Z,99.90
2023-01-17T22:29:24.265Z,99.90
2023-01-17T22:31:50.949Z,99.90
2023-01-17T22:34:19.765Z,99.90
2023-01-17T22:36:48.855Z,99.90
2023-01-17T22:39:15.483Z,99.90
2023-01-17T22:41:42.180Z,99.90
2023-01-17T22:44:08.830Z,99.90
2023-01-17T22:46:38.307Z,99.90
2023-01-17T22:49:07.583Z,99.90
2023-01-17T22:51:35.162Z,99.90
2023-01-17T22:54:04.392Z,99.90
2023-01-17T22:56:33.064Z,99.90
2023-01-17T22:59:01.140Z,99.90
2023-01-17T23:01:32.585Z,99.90
2023-01-17T23:04:02.529Z,99.90
2023-01-17T23:06:37.811Z,99.90
2023-01-17T23:09:15.445Z,99.90
2023-01-17T23:11:51.909Z,99.90
2023-01-17T23:14:20.067Z,99.90
2023-01-17T23:17:20.734Z,99.90
2023-01-17T23:19:49.278Z,99.90
2023-01-17T23:22:20.160Z,99.90
2023-01-17T23:24:58.408Z,99.90
2023-01-17T23:27:45.277Z,99.90
2023-01-17T23:30:16.833Z,99.90
2023-01-17T23:32:47.081Z,99.90
2023-01-17T23:35:14.610Z,99.90
2023-01-17T23:37:59.684Z,99.90
2023-01-17T23:40:30.387Z,99.90
2023-01-17T23:43:15.697Z,99.90
2023-01-17T23:45:42.612Z,99.90
2023-01-17T23:48:09.916Z,99.90
2023-01-17T23:50:42.176Z,99.90
2023-01-17T23:53:09.744Z,99.90
2023-01-17T23:55:45.616Z,99.90
2023-01-17T23:58:12.688Z,99.90
